Eden Prairie, MN

7:34 AM CDT on June 03, 2015 (GMT -0500)
Glen Lake | | Change Station
CLOSE
Current Station
Personal Weather Station
Location: Minnetonka, MN
Elevation: 909 ft
Nearby Weather Stations

Elev 909 ft 44.90 °N, 93.45 °W | Updated 45 seconds ago

Overcast
Overcast
63.6 °F
Feels Like 63.6 °F
N
0.0
Wind Variable Wind from North
Gusts 5.0 mph

Today
High -- | Low -- °F
--% Chance of Precip.
Yesterday
High -- | Low -- °F
Precip. -- in
5:29 AM 8:54 PM
Full, 99% visible
Pressure 29.85 in
Visibility 7.0 miles
Clouds Few 2400 ft
Scattered Clouds 4000 ft
Mostly Cloudy 11000 ft
Dew Point 58 °F
Humidity 81%
Rainfall 0.00 in
Snow Depth Not available.
UV 1 out of 12
Pollen 1.00 out of 12
Air Quality Not available.
Flu Activity Sporadic
SPECI KFCM 031231Z 17008KT 7SM -TSRA FEW024 SCT040 BKN110 17/14 A2985 RMK AO2 LTG DSNT S AND SW RAB05 TSB25 P0000 T01670139

More Conditions Fewer Conditions

Pressure 29.85 in
Visibility 7.0 miles
Clouds Few 2400 ft
Scattered Clouds 4000 ft
Mostly Cloudy 11000 ft
Dew Point 58 °F
Humidity 81%
Rainfall 0.00 in
Snow Depth Not available.
UV 1 out of 12
Pollen 1.00 out of 12
Air Quality Not available.
Flu Activity Sporadic
SPECI KFCM 031231Z 17008KT 7SM -TSRA FEW024 SCT040 BKN110 17/14 A2985 RMK AO2 LTG DSNT S AND SW RAB05 TSB25 P0000 T01670139

More Conditions Fewer Conditions

Nowcast | as of 6:38 am CDT on June 3, 2015

Scattered showers and thunderstorms will continue to plague portions of south central and east central Minnesota prior to 10 am. All of the activity will generally remain east of a line ...From Monticello to Glencoe to New Ulm to Trimont. All of the activity will trek northeast at 20 mph. Some of the strongest thunderstorms will contain hail between one quarter of an inch to near one half inch in diameter. Short bursts of heavy rainfall are also possible.

×

10-Day Weather Forecast

×

Almanac

Astronomy

Jun. 03, 2015 Rise Set
Actual Time
Civil Twilight
Nautical Twilight
Astronomical Twilight
Moon
Length of Visible Light
Length of Day
Tomorrow will be .
, % of the Moon is Illuminated

Today's Extremes

State Highs State Lows

Community

WunderPhotos

Upload Photos

1,826,207 photos uploaded!

WunderBlogs® & News

Nearby

Air Quality

  Air Quality AQ Index Pollutant
Not available.

Snow Depth

Station Depth Elevation

Earthquake Activity

City Distance Mag. Time & Date
Minimum magnitude displayed is 2.5.

Coastal Water Temperatures

Place Temperature

Stations

Nearby Weather Stations

Station Location Temp. Windchill Dew Point Humidity Wind Precip. Elev Updated Type